createdAt,value
2018-06-04T00:02:38.202Z,30.23
2018-06-04T00:07:41.461Z,28.40
2018-06-04T00:12:44.846Z,27.60
2018-06-04T00:17:48.546Z,28.00
2018-06-04T00:22:52.092Z,26.77
2018-06-04T00:27:55.268Z,22.70
2018-06-04T00:32:58.404Z,27.10
2018-06-04T00:38:01.534Z,25.43
2018-06-04T00:43:04.785Z,23.67
2018-06-04T00:48:08.250Z,25.20
2018-06-04T00:53:11.730Z,23.77
2018-06-04T00:58:15.175Z,25.93
2018-06-04T01:03:18.252Z,25.97
2018-06-04T01:08:22.456Z,27.33
2018-06-04T01:13:25.652Z,34.33
2018-06-04T01:18:28.901Z,35.00
2018-06-04T01:23:32.995Z,36.23
2018-06-04T01:28:36.250Z,33.47
2018-06-04T01:33:39.397Z,36.83
2018-06-04T01:38:42.547Z,39.77
2018-06-04T01:43:45.690Z,37.60
2018-06-04T01:48:48.887Z,43.27
2018-06-04T01:53:52.550Z,46.63
2018-06-04T01:58:55.826Z,45.10
2018-06-04T02:03:59.500Z,42.60
2018-06-04T02:09:02.773Z,48.47
2018-06-04T02:14:06.173Z,43.90
2018-06-04T02:19:09.898Z,42.23
2018-06-04T02:24:13.283Z,42.50
2018-06-04T02:29:16.401Z,44.33
2018-06-04T02:34:20.039Z,48.57
2018-06-04T02:39:23.654Z,49.33
2018-06-04T02:44:26.869Z,51.33
2018-06-04T02:49:29.962Z,52.63
2018-06-04T02:54:33.541Z,53.80
2018-06-04T02:59:37.567Z,48.40
2018-06-04T03:04:40.758Z,49.20
2018-06-04T03:09:43.886Z,51.83
2018-06-04T03:14:47.109Z,56.17
2018-06-04T03:19:50.313Z,53.17
2018-06-04T03:24:53.551Z,57.50
2018-06-04T03:29:56.620Z,56.57
2018-06-04T03:34:59.787Z,60.27
2018-06-04T03:40:02.897Z,65.90
2018-06-04T03:45:06.200Z,61.70
2018-06-04T03:50:09.560Z,63.10
2018-06-04T03:55:13.250Z,50.50
2018-06-04T04:00:16.103Z,57.43
2018-06-04T04:05:19.290Z,62.00
2018-06-04T04:10:22.521Z,62.30
2018-06-04T04:15:25.722Z,60.63
2018-06-04T04:20:28.869Z,64.70
2018-06-04T04:25:31.940Z,67.90
2018-06-04T04:30:35.121Z,63.27
2018-06-04T04:35:38.391Z,64.17
2018-06-04T04:40:41.317Z,63.47
2018-06-04T04:45:44.224Z,70.50
2018-06-04T04:50:47.621Z,67.97
2018-06-04T04:55:51.082Z,60.10
2018-06-04T05:00:53.995Z,63.23
2018-06-04T05:05:56.848Z,63.40
2018-06-04T05:10:59.768Z,69.63
2018-06-04T05:16:02.742Z,71.03
2018-06-04T05:21:05.698Z,62.87
2018-06-04T05:26:08.924Z,68.40
2018-06-04T05:31:11.809Z,67.70
2018-06-04T05:36:18.497Z,70.70
2018-06-04T05:41:21.482Z,70.20
2018-06-04T05:46:24.368Z,69.33
2018-06-04T05:51:27.261Z,71.97
2018-06-04T05:56:30.766Z,70.00
2018-06-04T06:01:33.645Z,77.10
2018-06-04T06:06:36.523Z,67.13
2018-06-04T06:11:39.472Z,71.07
2018-06-04T06:16:42.450Z,69.27
2018-06-04T06:21:45.420Z,65.00
2018-06-04T06:26:48.601Z,67.90
2018-06-04T06:31:52.830Z,67.17
2018-06-04T06:36:55.715Z,68.67
2018-06-04T06:41:58.649Z,61.17
2018-06-04T06:47:01.673Z,62.83
2018-06-04T06:52:04.574Z,59.17
2018-06-04T06:57:08.321Z,56.60
2018-06-04T07:02:11.252Z,56.23
2018-06-04T07:07:14.180Z,51.67
2018-06-04T07:12:17.085Z,50.87
2018-06-04T07:17:24.319Z,44.00
2018-06-04T07:22:27.432Z,42.30
2018-06-04T07:27:31.537Z,31.63
2018-06-04T07:32:34.704Z,29.57
2018-06-04T07:37:38.005Z,25.67
2018-06-04T07:42:40.920Z,25.13
2018-06-04T07:47:43.826Z,23.17
2018-06-04T07:52:46.692Z,23.60
2018-06-04T07:57:49.776Z,23.33
2018-06-04T08:02:52.913Z,20.80
2018-06-04T08:07:55.834Z,23.03
2018-06-04T08:13:03.495Z,23.60
2018-06-04T08:18:06.899Z,21.93
2018-06-04T08:23:09.851Z,23.07
2018-06-04T08:28:16.290Z,20.33
2018-06-04T08:33:21.314Z,21.37
2018-06-04T08:38:24.217Z,18.30
2018-06-04T08:43:29.495Z,18.30
2018-06-04T08:48:32.362Z,16.53
2018-06-04T08:53:35.242Z,15.23
2018-06-04T08:58:38.236Z,14.87
2018-06-04T09:03:41.478Z,17.33
2018-06-04T09:08:44.904Z,16.83
2018-06-04T09:13:53.339Z,17.77
2018-06-04T09:18:59.944Z,15.40
2018-06-04T09:24:02.879Z,16.07
2018-06-04T09:29:05.811Z,15.70
2018-06-04T09:34:08.706Z,15.10
2018-06-04T09:39:12.057Z,15.53
2018-06-04T09:44:15.050Z,14.20
2018-06-04T09:49:18.228Z,13.70
2018-06-04T09:54:22.009Z,14.33
2018-06-04T09:59:25.704Z,12.70
2018-06-04T10:04:28.877Z,12.30
2018-06-04T10:09:35.398Z,13.20
2018-06-04T10:14:38.317Z,12.47
2018-06-04T10:19:41.174Z,13.50
2018-06-04T10:24:44.204Z,14.83
2018-06-04T10:29:47.116Z,11.40
2018-06-04T10:34:50.028Z,11.93
2018-06-04T10:39:53.188Z,12.50
2018-06-04T10:44:56.159Z,12.50
2018-06-04T10:49:59.072Z,11.67
2018-06-04T10:55:02.036Z,11.13
2018-06-04T11:00:05.504Z,11.77
2018-06-04T11:05:08.785Z,11.77
2018-06-04T11:10:11.650Z,12.60
2018-06-04T11:15:16.195Z,13.90
2018-06-04T11:20:25.187Z,14.30
2018-06-04T11:25:40.023Z,13.60
2018-06-04T11:30:45.436Z,14.90
2018-06-04T11:35:55.800Z,12.13
2018-06-04T11:41:02.905Z,14.10
2018-06-04T11:46:08.606Z,15.23
2018-06-04T11:51:14.735Z,13.80
2018-06-04T11:56:17.951Z,12.80
2018-06-04T12:01:21.666Z,11.93
2018-06-04T12:06:25.114Z,11.50
2018-06-04T12:11:34.170Z,11.57
2018-06-04T12:16:37.460Z,12.43
2018-06-04T12:21:40.403Z,13.03
2018-06-04T12:26:43.933Z,13.90
2018-06-04T12:31:47.165Z,17.03
2018-06-04T12:36:50.081Z,15.00
2018-06-04T12:41:52.977Z,14.90
2018-06-04T12:46:55.912Z,13.47
2018-06-04T12:52:01.194Z,13.70
2018-06-04T12:57:04.132Z,9.80
2018-06-04T13:02:07.417Z,10.93
2018-06-04T13:07:12.491Z,11.30
2018-06-04T13:12:15.648Z,11.93
2018-06-04T13:17:21.856Z,10.13
2018-06-04T13:22:26.930Z,9.10
2018-06-04T13:27:30.817Z,9.20
2018-06-04T13:32:34.704Z,9.83
2018-06-04T13:37:38.739Z,9.70
2018-06-04T13:42:42.116Z,11.20
2018-06-04T13:47:48.175Z,10.93
2018-06-04T13:52:51.030Z,12.57
2018-06-04T13:57:53.881Z,15.07
2018-06-04T14:02:58.179Z,17.20
2018-06-04T14:08:01.786Z,18.37
2018-06-04T14:13:05.655Z,20.30
2018-06-04T14:18:08.901Z,21.27
2018-06-04T14:23:15.352Z,20.77
2018-06-04T14:28:19.776Z,21.40
2018-06-04T14:33:23.751Z,20.40
2018-06-04T14:38:30.069Z,20.43
2018-06-04T14:43:35.667Z,18.20
2018-06-04T14:48:49.162Z,21.70
2018-06-04T14:53:55.288Z,18.80
2018-06-04T14:59:04.836Z,19.07
2018-06-04T15:04:13.421Z,18.40
2018-06-04T15:09:16.452Z,19.83
2018-06-04T15:14:19.417Z,19.20
2018-06-04T15:19:24.470Z,19.87
2018-06-04T15:24:27.891Z,19.90
2018-06-04T15:29:32.936Z,20.30
2018-06-04T15:34:37.937Z,15.63
2018-06-04T15:39:43.288Z,15.73
2018-06-04T15:44:47.564Z,15.00
2018-06-04T15:49:52.277Z,15.10
2018-06-04T15:54:56.815Z,14.97
2018-06-04T16:00:01.695Z,16.33
2018-06-04T16:05:06.753Z,16.07
2018-06-04T16:10:09.749Z,15.37
2018-06-04T16:15:17.206Z,15.53
2018-06-04T16:20:20.654Z,15.80
2018-06-04T16:25:24.049Z,15.90
2018-06-04T16:30:26.957Z,16.20
2018-06-04T16:35:31.472Z,18.13
2018-06-04T16:40:35.350Z,16.80
2018-06-04T16:45:38.635Z,16.77
2018-06-04T16:50:43.989Z,18.50
2018-06-04T16:55:47.751Z,19.17
2018-06-04T17:00:55.695Z,21.13
2018-06-04T17:06:00.315Z,19.27
2018-06-04T17:11:04.119Z,19.90
2018-06-04T17:16:07.160Z,20.80
2018-06-04T17:21:13.887Z,19.53
2018-06-04T17:26:16.924Z,19.83
2018-06-04T17:31:21.024Z,17.77
2018-06-04T17:36:25.433Z,20.47
2018-06-04T17:41:29.008Z,20.07
2018-06-04T17:46:34.144Z,18.40
2018-06-04T17:51:42.859Z,15.90
2018-06-04T17:56:48.562Z,14.03
2018-06-04T18:01:57.690Z,15.77
2018-06-04T18:07:01.803Z,14.83
2018-06-04T18:12:05.837Z,13.63
2018-06-04T18:17:14.682Z,13.33
2018-06-04T18:22:19.489Z,12.00
2018-06-04T18:27:23.646Z,11.80
2018-06-04T18:32:29.013Z,10.27
2018-06-04T18:37:33.373Z,8.70
2018-06-04T18:42:37.316Z,8.83
2018-06-04T18:47:41.155Z,8.93
2018-06-04T18:52:44.959Z,8.90
2018-06-04T18:57:48.433Z,8.47
2018-06-04T19:02:52.018Z,9.03
2018-06-04T19:07:55.840Z,9.40
2018-06-04T19:13:07.163Z,8.93
2018-06-04T19:18:11.578Z,9.73
2018-06-04T19:23:15.279Z,10.40
2018-06-04T19:28:18.955Z,10.80
2018-06-04T19:33:22.326Z,9.87
2018-06-04T19:38:26.037Z,9.83
2018-06-04T19:43:29.464Z,10.07
2018-06-04T19:48:33.234Z,10.87
2018-06-04T19:53:37.310Z,11.13
2018-06-04T19:58:41.590Z,12.70
2018-06-04T20:03:45.515Z,12.57
2018-06-04T20:08:49.551Z,13.20
2018-06-04T20:13:53.586Z,13.53
2018-06-04T20:18:57.950Z,13.27
2018-06-04T20:24:02.922Z,12.53
2018-06-04T20:29:06.339Z,12.57
2018-06-04T20:34:15.847Z,12.97
2018-06-04T20:39:23.312Z,13.43
2018-06-04T20:44:26.269Z,13.30
2018-06-04T20:49:29.430Z,14.30
2018-06-04T20:54:33.204Z,15.07
2018-06-04T20:59:36.589Z,14.60
2018-06-04T21:04:40.012Z,15.40
2018-06-04T21:09:43.156Z,15.77
2018-06-04T21:14:46.027Z,16.03
2018-06-04T21:19:48.894Z,16.60
2018-06-04T21:24:52.016Z,14.27
2018-06-04T21:29:55.450Z,15.57
2018-06-04T21:34:58.629Z,16.50
2018-06-04T21:40:01.972Z,16.13
2018-06-04T21:45:05.240Z,17.40
2018-06-04T21:50:08.209Z,17.40
2018-06-04T21:55:11.601Z,18.17
2018-06-04T22:00:14.815Z,18.90
2018-06-04T22:05:17.911Z,17.40
2018-06-04T22:10:21.725Z,17.80
2018-06-04T22:15:24.661Z,19.73
2018-06-04T22:20:27.924Z,19.00
2018-06-04T22:25:31.311Z,19.37
2018-06-04T22:30:34.988Z,21.20
2018-06-04T22:35:38.152Z,19.93
2018-06-04T22:40:41.882Z,20.67
2018-06-04T22:45:44.994Z,22.90
2018-06-04T22:50:48.270Z,22.20
2018-06-04T22:55:51.494Z,20.37
2018-06-04T23:00:54.795Z,22.77
2018-06-04T23:05:57.913Z,22.40
2018-06-04T23:11:01.401Z,21.10
2018-06-04T23:16:04.585Z,19.33
2018-06-04T23:21:07.990Z,20.20
2018-06-04T23:26:11.053Z,19.17
2018-06-04T23:31:14.152Z,18.90
2018-06-04T23:36:17.292Z,21.10
2018-06-04T23:41:21.065Z,19.67
2018-06-04T23:46:24.699Z,18.73
2018-06-04T23:51:27.886Z,18.90
2018-06-04T23:56:31.058Z,18.20
